Bluff Point, Indiana
Current Conditions -  °F | °C
As of 9:53 PM on Tuesday 25 Nov 2014 (Local Time) from KMIE Reporting Station
Overcast Overcast  
Wind Chill: 23°   Ceiling: 1400
Heat Index: 28°   Visibility: 10mi
Dew Point: 23°   Wind: 5mph
Humidity: 81%   Direction: 260°W
Pressure: 30.2"   Gusts: NA
Location:  40.4312°N, 85.0058°W
Report Text: KMIE 260253Z AUTO 26004KT 10SM OVC014 M02/M05 A3020 RMK AO2 SLP232 T10221050 51006
Loading
Personal Weather Stations






























Interactive Weather Map New forecast layout! Learn more

10-Day Weather Forecast

Advertisements
Track Severe Weather on mobile